createdAt,value
2022-11-27T00:01:22.097Z,2.95
2022-11-27T00:03:49.363Z,2.17
2022-11-27T00:06:18.153Z,5.15
2022-11-27T00:08:45.496Z,4.25
2022-11-27T00:11:14.744Z,3.15
2022-11-27T00:13:42.705Z,5.05
2022-11-27T00:16:10.067Z,3.70
2022-11-27T00:18:37.209Z,4.90
2022-11-27T00:21:08.406Z,2.80
2022-11-27T00:23:35.647Z,3.67
2022-11-27T00:26:03.336Z,2.00
2022-11-27T00:28:30.705Z,4.72
2022-11-27T00:31:01.723Z,3.28
2022-11-27T00:33:28.811Z,2.42
2022-11-27T00:35:55.968Z,3.40
2022-11-27T00:38:23.368Z,3.22
2022-11-27T00:40:50.497Z,3.55
2022-11-27T00:43:20.305Z,4.80
2022-11-27T00:45:50.502Z,4.47
2022-11-27T00:48:17.604Z,3.63
2022-11-27T00:50:44.812Z,2.65
2022-11-27T00:53:12.308Z,4.88
2022-11-27T00:55:39.408Z,2.70
2022-11-27T00:58:06.623Z,3.55
2022-11-27T01:00:33.835Z,5.03
2022-11-27T01:03:00.962Z,6.78
2022-11-27T01:05:28.278Z,6.55
2022-11-27T01:07:55.589Z,5.25
2022-11-27T01:10:22.690Z,2.88
2022-11-27T01:12:50.434Z,2.47
2022-11-27T01:15:17.636Z,3.50
2022-11-27T01:17:44.832Z,4.85
2022-11-27T01:20:12.901Z,3.40
2022-11-27T01:22:40.225Z,3.97
2022-11-27T01:25:08.079Z,3.55
2022-11-27T01:27:35.288Z,3.28
2022-11-27T01:30:02.707Z,2.15
2022-11-27T01:32:29.829Z,3.33
2022-11-27T01:34:56.985Z,2.85
2022-11-27T01:43:43.117Z,4.00
2022-11-27T01:47:27.429Z,2.55
2022-11-27T01:50:41.637Z,5.20
2022-11-27T01:53:16.424Z,6.65
2022-11-27T01:55:49.014Z,2.40
2022-11-27T01:58:28.183Z,3.30
2022-11-27T02:00:55.563Z,2.15
2022-11-27T02:03:23.213Z,2.40
2022-11-27T02:10:19.789Z,2.50
2022-11-27T02:13:10.254Z,3.83
2022-11-27T02:15:49.024Z,4.05
2022-11-27T02:18:39.731Z,5.07
2022-11-27T02:21:28.025Z,3.53
2022-11-27T02:24:26.830Z,4.20
2022-11-27T02:27:13.873Z,2.92
2022-11-27T02:29:40.923Z,2.80
2022-11-27T02:32:11.002Z,3.08
2022-11-27T02:34:49.730Z,2.90
2022-11-27T02:37:27.663Z,3.28
2022-11-27T02:40:09.666Z,3.65
2022-11-27T02:42:45.448Z,3.83
2022-11-27T02:45:19.887Z,3.10
2022-11-27T02:47:47.112Z,2.83
2022-11-27T02:50:20.054Z,2.92
2022-11-27T02:52:47.612Z,2.47
2022-11-27T02:55:16.484Z,4.30
2022-11-27T02:57:43.852Z,3.55
2022-11-27T03:00:12.086Z,2.45
2022-11-27T03:02:47.695Z,3.20
2022-11-27T03:05:37.415Z,2.78
2022-11-27T03:08:37.245Z,4.68
2022-11-27T03:20:57.610Z,1.95
2022-11-27T03:23:24.662Z,4.15
2022-11-27T03:25:51.943Z,1.92
2022-11-27T03:28:19.318Z,3.05
2022-11-27T03:30:46.359Z,2.78
2022-11-27T03:33:13.396Z,2.22
2022-11-27T03:35:40.664Z,2.33
2022-11-27T03:38:07.675Z,2.20
2022-11-27T03:41:13.971Z,2.60
2022-11-27T03:44:10.353Z,2.72
2022-11-27T03:46:47.100Z,3.03
2022-11-27T03:49:29.385Z,2.92
2022-11-27T03:52:09.018Z,3.08
2022-11-27T03:55:00.666Z,4.45
2022-11-27T03:57:36.200Z,1.58
2022-11-27T04:00:06.006Z,2.38
2022-11-27T04:02:47.498Z,1.63
2022-11-27T04:05:14.844Z,2.15
2022-11-27T04:07:41.981Z,1.27
2022-11-27T04:10:10.050Z,2.42
2022-11-27T04:12:37.122Z,2.15
2022-11-27T04:15:05.290Z,3.05
2022-11-27T04:17:32.546Z,3.45
2022-11-27T04:19:59.700Z,1.88
2022-11-27T04:22:26.749Z,2.00
2022-11-27T04:24:54.129Z,2.38
2022-11-27T04:27:21.239Z,3.00
2022-11-27T04:29:48.305Z,1.85
2022-11-27T04:32:15.788Z,2.10
2022-11-27T04:34:43.093Z,1.80
2022-11-27T04:37:10.329Z,1.25
2022-11-27T04:39:37.747Z,4.43
2022-11-27T04:42:04.880Z,1.70
2022-11-27T04:44:31.895Z,2.55
2022-11-27T04:46:59.872Z,1.90
2022-11-27T04:49:27.065Z,2.15
2022-11-27T04:51:54.101Z,1.77
2022-11-27T04:54:21.464Z,1.20
2022-11-27T04:56:48.515Z,2.15
2022-11-27T04:59:15.741Z,3.67
2022-11-27T05:01:43.506Z,2.92
2022-11-27T05:04:10.722Z,1.90
2022-11-27T05:06:37.900Z,1.90
2022-11-27T05:09:05.148Z,3.55
2022-11-27T05:11:32.399Z,3.33
2022-11-27T05:14:18.441Z,3.00
2022-11-27T05:33:44.645Z,2.78
2022-11-27T05:36:11.870Z,4.05
2022-11-27T05:38:39.782Z,1.42
2022-11-27T05:41:06.771Z,2.30
2022-11-27T05:43:33.857Z,1.80
2022-11-27T05:46:05.926Z,1.98
2022-11-27T05:48:33.853Z,1.98
2022-11-27T05:51:01.063Z,2.22
2022-11-27T05:53:28.356Z,2.80
2022-11-27T05:55:55.536Z,1.50
2022-11-27T05:58:22.669Z,1.98
2022-11-27T06:00:49.947Z,2.40
2022-11-27T06:03:17.147Z,1.63
2022-11-27T06:06:17.384Z,2.80
2022-11-27T06:08:44.839Z,2.30
2022-11-27T06:11:17.280Z,1.58
2022-11-27T06:13:44.929Z,1.60
2022-11-27T06:16:14.273Z,2.00
2022-11-27T06:18:41.590Z,2.53
2022-11-27T06:21:13.542Z,2.45
2022-11-27T06:23:43.178Z,2.25
2022-11-27T06:26:18.198Z,1.63
2022-11-27T06:28:45.953Z,3.15
2022-11-27T06:31:17.994Z,1.75
2022-11-27T06:33:49.131Z,2.28
2022-11-27T06:36:19.026Z,2.35
2022-11-27T06:38:46.331Z,2.00
2022-11-27T06:41:18.113Z,1.92
2022-11-27T06:44:26.381Z,1.40
2022-11-27T06:50:07.755Z,1.33
2022-11-27T06:52:40.212Z,3.22
2022-11-27T06:55:08.091Z,2.17
2022-11-27T06:57:35.159Z,1.73
2022-11-27T07:00:02.498Z,1.67
2022-11-27T07:02:30.423Z,2.47
2022-11-27T07:04:57.706Z,1.45
2022-11-27T07:07:25.047Z,1.73
2022-11-27T07:09:52.192Z,1.77
2022-11-27T07:12:19.184Z,1.40
2022-11-27T07:14:46.621Z,1.80
2022-11-27T07:17:16.737Z,1.83
2022-11-27T07:19:43.910Z,1.42
2022-11-27T07:22:14.111Z,2.38
2022-11-27T07:24:43.962Z,2.08
2022-11-27T07:27:11.184Z,2.05
2022-11-27T07:29:38.855Z,1.10
2022-11-27T07:32:06.107Z,1.90
2022-11-27T07:34:33.187Z,1.77
2022-11-27T07:37:00.561Z,1.30
2022-11-27T07:39:54.019Z,10.05
2022-11-27T07:45:02.190Z,1.85
2022-11-27T07:47:30.321Z,2.03
2022-11-27T07:50:00.323Z,2.30
2022-11-27T07:52:27.582Z,3.05
2022-11-27T07:54:54.919Z,3.65
2022-11-27T07:57:22.011Z,3.03
2022-11-27T07:59:49.281Z,2.65
2022-11-27T08:02:16.589Z,1.48
2022-11-27T08:04:44.171Z,2.65
2022-11-27T08:07:12.056Z,1.42
2022-11-27T08:09:40.221Z,1.30
2022-11-27T08:12:07.443Z,1.65
2022-11-27T08:14:34.632Z,1.35
2022-11-27T08:17:01.778Z,1.58
2022-11-27T08:19:29.016Z,1.35
2022-11-27T08:21:57.640Z,1.90
2022-11-27T08:24:25.197Z,2.33
2022-11-27T08:26:52.457Z,1.70
2022-11-27T08:29:19.646Z,2.60
2022-11-27T08:31:46.846Z,1.75
2022-11-27T08:34:14.055Z,1.95
2022-11-27T08:36:41.658Z,1.85
2022-11-27T08:39:08.901Z,2.80
2022-11-27T08:41:35.945Z,2.22
2022-11-27T08:44:06.787Z,3.63
2022-11-27T08:46:36.692Z,2.33
2022-11-27T08:49:03.837Z,2.35
2022-11-27T08:51:30.973Z,3.22
2022-11-27T08:53:58.700Z,1.88
2022-11-27T08:56:31.132Z,2.78
2022-11-27T08:58:58.383Z,3.03
2022-11-27T09:01:28.020Z,2.40
2022-11-27T09:04:09.191Z,2.40
2022-11-27T09:06:36.715Z,2.42
2022-11-27T09:09:05.416Z,2.20
2022-11-27T09:11:32.869Z,2.78
2022-11-27T09:14:00.705Z,4.22
2022-11-27T09:16:29.200Z,2.83
2022-11-27T09:18:56.497Z,2.42
2022-11-27T09:21:24.640Z,2.85
2022-11-27T09:23:55.253Z,1.85
2022-11-27T09:26:26.712Z,3.85
2022-11-27T09:29:07.316Z,2.35
2022-11-27T09:32:30.499Z,2.83
2022-11-27T09:35:46.280Z,1.90
2022-11-27T09:38:14.481Z,2.35
2022-11-27T09:41:51.663Z,2.88
2022-11-27T09:45:16.893Z,2.65
2022-11-27T09:52:44.607Z,2.95
2022-11-27T09:55:37.509Z,2.97
2022-11-27T10:03:23.463Z,3.45
2022-11-27T10:05:51.594Z,3.92
2022-11-27T10:12:09.212Z,2.63
2022-11-27T10:15:22.721Z,2.95
2022-11-27T10:17:58.672Z,2.78
2022-11-27T10:20:48.907Z,3.10
2022-11-27T10:23:50.825Z,3.22
2022-11-27T10:26:43.081Z,3.83
2022-11-27T10:29:10.575Z,2.83
2022-11-27T10:31:43.654Z,2.80
2022-11-27T10:35:26.715Z,3.17
2022-11-27T10:38:11.764Z,4.47
2022-11-27T10:41:09.812Z,2.65
2022-11-27T10:44:07.916Z,3.60
2022-11-27T10:46:35.265Z,3.63
2022-11-27T10:49:05.811Z,2.15
2022-11-27T10:51:35.708Z,3.88
2022-11-27T10:54:03.861Z,3.35
2022-11-27T10:56:49.528Z,4.80
2022-11-27T10:59:28.784Z,2.63
2022-11-27T11:02:01.260Z,5.03
2022-11-27T11:04:37.950Z,3.47
2022-11-27T11:07:23.572Z,3.90
2022-11-27T11:09:50.886Z,3.00
2022-11-27T11:12:21.311Z,3.67
2022-11-27T11:15:02.000Z,3.78
2022-11-27T11:17:34.484Z,3.67
2022-11-27T11:20:01.982Z,2.83
2022-11-27T11:22:30.069Z,2.53
2022-11-27T11:24:58.093Z,3.88
2022-11-27T11:27:30.186Z,2.30
2022-11-27T11:30:05.447Z,6.13
2022-11-27T11:32:36.374Z,3.55
2022-11-27T11:35:10.390Z,2.33
2022-11-27T11:37:42.103Z,3.88
2022-11-27T11:40:30.261Z,2.35
2022-11-27T11:42:59.282Z,4.50
2022-11-27T11:45:32.340Z,3.30
2022-11-27T11:48:25.999Z,4.45
2022-11-27T11:51:02.133Z,3.53
2022-11-27T11:54:08.928Z,2.90
2022-11-27T11:56:38.906Z,5.15
2022-11-27T11:59:31.038Z,4.50
2022-11-27T12:02:17.054Z,3.67
2022-11-27T12:05:53.038Z,3.95
2022-11-27T12:08:43.381Z,2.90
2022-11-27T12:11:26.819Z,3.10
2022-11-27T12:14:36.934Z,4.30
2022-11-27T12:17:34.544Z,6.57
2022-11-27T12:20:12.355Z,3.03
2022-11-27T12:22:50.401Z,4.88
2022-11-27T12:25:33.666Z,4.00
2022-11-27T12:28:19.147Z,5.18
2022-11-27T12:31:28.098Z,6.65
2022-11-27T12:34:02.804Z,2.92
2022-11-27T12:36:44.695Z,6.07
2022-11-27T12:39:30.041Z,4.55
2022-11-27T12:42:06.844Z,6.68
2022-11-27T12:45:15.276Z,5.47
2022-11-27T12:47:57.053Z,7.43
2022-11-27T12:50:54.438Z,4.72
2022-11-27T12:53:33.639Z,5.75
2022-11-27T12:56:09.024Z,9.50
2022-11-27T12:58:39.419Z,13.02
2022-11-27T13:01:09.735Z,7.18
2022-11-27T13:06:27.137Z,3.75
2022-11-27T13:09:03.180Z,14.18
2022-11-27T13:11:36.944Z,7.97
2022-11-27T13:14:05.729Z,6.97
2022-11-27T13:16:46.558Z,10.75
2022-11-27T13:19:41.762Z,5.95
2022-11-27T13:22:16.058Z,7.18
2022-11-27T13:24:43.797Z,4.32
2022-11-27T13:27:18.625Z,6.72
2022-11-27T13:29:55.341Z,8.43
2022-11-27T13:32:27.718Z,4.82
2022-11-27T13:34:56.834Z,6.47
2022-11-27T13:37:35.958Z,8.25
2022-11-27T13:40:22.024Z,9.13
2022-11-27T13:42:55.651Z,6.97
2022-11-27T13:45:34.149Z,6.68
2022-11-27T13:48:01.673Z,8.48
2022-11-27T13:50:31.458Z,7.07
2022-11-27T13:53:04.569Z,6.25
2022-11-27T13:55:36.210Z,8.55
2022-11-27T13:58:03.615Z,7.43
2022-11-27T14:00:38.582Z,10.90
2022-11-27T14:03:06.199Z,8.27
2022-11-27T14:05:51.444Z,11.02
2022-11-27T14:08:24.630Z,8.60
2022-11-27T14:11:00.890Z,10.40
2022-11-27T14:13:48.883Z,8.30
2022-11-27T14:16:24.234Z,9.82
2022-11-27T14:18:57.251Z,8.48
2022-11-27T14:21:26.319Z,8.57
2022-11-27T14:23:53.722Z,10.90
2022-11-27T14:26:22.804Z,10.77
2022-11-27T14:28:52.485Z,12.48
2022-11-27T14:31:31.742Z,11.10
2022-11-27T14:34:15.655Z,7.50
2022-11-27T14:36:44.902Z,8.70
2022-11-27T14:39:22.342Z,12.15
2022-11-27T14:42:05.200Z,8.68
2022-11-27T14:44:32.571Z,10.82
2022-11-27T14:47:02.005Z,14.23
2022-11-27T14:49:30.096Z,9.05
2022-11-27T14:52:00.328Z,10.40
2022-11-27T14:57:05.908Z,10.75
2022-11-27T14:59:33.105Z,11.40
2022-11-27T15:02:01.607Z,5.85
2022-11-27T15:04:43.833Z,6.43
2022-11-27T15:07:18.120Z,11.57
2022-11-27T15:09:50.840Z,14.73
2022-11-27T15:12:21.058Z,10.35
2022-11-27T15:15:00.825Z,11.80
2022-11-27T15:17:30.024Z,14.10
2022-11-27T15:19:57.783Z,7.67
2022-11-27T15:22:26.163Z,11.10
2022-11-27T15:25:01.234Z,12.85
2022-11-27T15:27:31.086Z,9.40
2022-11-27T15:30:03.571Z,8.52
2022-11-27T15:33:03.725Z,8.30
2022-11-27T15:35:35.241Z,8.80
2022-11-27T15:38:09.524Z,12.27
2022-11-27T15:40:39.315Z,9.18
2022-11-27T15:43:19.134Z,17.25
2022-11-27T15:45:46.759Z,10.85
2022-11-27T15:48:17.974Z,10.40
2022-11-27T15:50:51.327Z,14.20
2022-11-27T15:53:20.018Z,12.20
2022-11-27T15:55:47.134Z,15.48
2022-11-27T15:58:14.153Z,13.65
2022-11-27T16:00:41.623Z,14.85
2022-11-27T16:03:09.052Z,8.98
2022-11-27T16:05:39.701Z,11.75
2022-11-27T16:08:14.358Z,9.45
2022-11-27T16:10:41.938Z,13.73
2022-11-27T16:13:09.034Z,11.43
2022-11-27T16:15:36.579Z,9.90
2022-11-27T16:18:03.942Z,12.93
2022-11-27T16:20:31.127Z,9.52
2022-11-27T16:22:58.521Z,8.50
2022-11-27T16:25:26.879Z,10.32
2022-11-27T16:28:00.948Z,11.27
2022-11-27T16:30:30.180Z,13.07
2022-11-27T16:32:57.463Z,11.90
2022-11-27T16:35:25.754Z,10.20
2022-11-27T16:37:54.345Z,12.98
2022-11-27T16:40:22.448Z,11.00
2022-11-27T16:42:49.706Z,10.48
2022-11-27T16:45:19.021Z,14.48
2022-11-27T16:47:46.373Z,9.80
2022-11-27T16:50:13.803Z,10.95
2022-11-27T16:52:44.627Z,10.02
2022-11-27T16:55:13.280Z,13.60
2022-11-27T16:57:41.426Z,12.25
2022-11-27T17:00:10.046Z,17.17
2022-11-27T17:02:48.158Z,14.90
2022-11-27T17:05:16.534Z,12.48
2022-11-27T17:07:47.437Z,17.85
2022-11-27T17:10:24.143Z,17.10
2022-11-27T17:12:57.103Z,12.38
2022-11-27T17:15:25.366Z,14.20
2022-11-27T17:17:57.926Z,13.57
2022-11-27T17:20:25.189Z,11.88
2022-11-27T17:22:52.683Z,19.25
2022-11-27T17:25:24.833Z,16.98
2022-11-27T17:27:53.588Z,13.30
2022-11-27T17:30:22.203Z,12.40
2022-11-27T17:32:53.002Z,9.97
2022-11-27T17:35:20.815Z,16.15
2022-11-27T17:37:47.995Z,18.38
2022-11-27T17:40:15.201Z,15.02
2022-11-27T17:42:42.894Z,16.75
2022-11-27T17:45:11.508Z,17.42
2022-11-27T17:47:39.007Z,13.98
2022-11-27T17:50:10.463Z,10.57
2022-11-27T17:52:38.006Z,11.85
2022-11-27T17:55:06.702Z,13.60
2022-11-27T17:57:35.423Z,14.88
2022-11-27T18:00:04.221Z,11.65
2022-11-27T18:02:41.506Z,11.18
2022-11-27T18:05:09.540Z,14.13
2022-11-27T18:07:36.718Z,11.20
2022-11-27T18:10:04.672Z,8.68
2022-11-27T18:12:32.180Z,17.02
2022-11-27T18:15:01.483Z,11.45
2022-11-27T18:17:31.917Z,11.45
2022-11-27T18:19:59.223Z,8.40
2022-11-27T18:22:26.388Z,12.18
2022-11-27T18:24:53.600Z,12.15
2022-11-27T18:27:20.839Z,11.93
2022-11-27T18:29:47.944Z,9.05
2022-11-27T18:32:15.439Z,11.60
2022-11-27T18:34:42.737Z,8.52
2022-11-27T18:37:11.798Z,13.40
2022-11-27T18:39:40.110Z,13.80
2022-11-27T18:42:07.728Z,9.68
2022-11-27T18:44:39.686Z,9.80
2022-11-27T18:47:10.519Z,9.80
2022-11-27T18:49:38.918Z,15.00
2022-11-27T18:52:07.022Z,9.45
2022-11-27T18:54:34.256Z,11.93
2022-11-27T18:57:01.289Z,10.10
2022-11-27T18:59:28.515Z,9.57
2022-11-27T19:01:55.851Z,9.30
2022-11-27T19:04:23.600Z,12.45
2022-11-27T19:06:51.163Z,10.15
2022-11-27T19:09:19.389Z,9.30
2022-11-27T19:11:46.378Z,10.63
2022-11-27T19:14:13.714Z,10.77
2022-11-27T19:16:46.567Z,12.43
2022-11-27T19:19:52.787Z,10.65
2022-11-27T19:22:04.456Z,8.52
2022-11-27T19:24:35.523Z,10.60
2022-11-27T19:27:03.907Z,8.93
2022-11-27T19:29:31.266Z,12.02
2022-11-27T19:32:01.251Z,10.95
2022-11-27T19:34:29.027Z,11.52
2022-11-27T19:36:58.849Z,7.80
2022-11-27T19:39:36.247Z,14.27
2022-11-27T19:42:06.444Z,13.50
2022-11-27T19:44:35.499Z,9.13
2022-11-27T19:47:03.635Z,13.60
2022-11-27T19:49:31.287Z,10.77
2022-11-27T19:51:58.645Z,13.73
2022-11-27T19:54:26.042Z,10.40
2022-11-27T19:56:53.627Z,7.97
2022-11-27T19:59:25.534Z,10.07
2022-11-27T20:01:54.672Z,11.13
2022-11-27T20:04:26.679Z,10.05
2022-11-27T20:06:57.006Z,13.35
2022-11-27T20:09:25.905Z,11.00
2022-11-27T20:11:57.527Z,13.32
2022-11-27T20:14:25.363Z,18.35
2022-11-27T20:16:56.009Z,12.45
2022-11-27T20:19:25.965Z,8.75
2022-11-27T20:21:53.216Z,12.13
2022-11-27T20:24:20.367Z,10.57
2022-11-27T20:26:48.385Z,11.80
2022-11-27T20:29:16.857Z,13.55
2022-11-27T20:31:45.153Z,9.55
2022-11-27T20:34:21.636Z,8.75
2022-11-27T20:36:49.321Z,12.70
2022-11-27T20:39:21.887Z,10.57
2022-11-27T20:41:51.977Z,11.00
2022-11-27T20:44:19.584Z,15.98
2022-11-27T20:46:47.272Z,13.27
2022-11-27T20:49:19.648Z,9.68
2022-11-27T20:51:50.856Z,10.68
2022-11-27T20:54:23.236Z,9.65
2022-11-27T20:56:51.414Z,8.25
2022-11-27T20:59:19.534Z,11.10
2022-11-27T21:01:46.902Z,10.15
2022-11-27T21:04:25.474Z,10.45
2022-11-27T21:06:54.907Z,6.88
2022-11-27T21:09:22.367Z,10.73
2022-11-27T21:11:49.583Z,8.52
2022-11-27T21:14:17.199Z,10.50
2022-11-27T21:16:48.270Z,8.48
2022-11-27T21:19:21.743Z,7.53
2022-11-27T21:21:50.095Z,9.50
2022-11-27T21:24:18.091Z,8.98
2022-11-27T21:26:45.300Z,9.90
2022-11-27T21:29:13.926Z,8.70
2022-11-27T21:31:46.772Z,9.35
2022-11-27T21:34:15.354Z,8.82
2022-11-27T21:36:43.715Z,8.57
2022-11-27T21:39:11.903Z,9.43
2022-11-27T21:41:39.180Z,8.82
2022-11-27T21:44:06.571Z,9.60
2022-11-27T21:46:33.951Z,6.43
2022-11-27T21:49:04.864Z,9.27
2022-11-27T21:51:32.176Z,5.95
2022-11-27T21:53:59.659Z,6.70
2022-11-27T21:56:27.907Z,6.15
2022-11-27T21:58:55.071Z,8.48
2022-11-27T22:01:23.735Z,8.55
2022-11-27T22:03:54.292Z,9.18
2022-11-27T22:06:21.962Z,9.75
2022-11-27T22:08:49.654Z,9.68
2022-11-27T22:11:19.269Z,10.18
2022-11-27T22:13:46.450Z,8.07
2022-11-27T22:16:21.015Z,9.38
2022-11-27T22:18:48.399Z,13.15
2022-11-27T22:21:16.115Z,10.93
2022-11-27T22:23:43.726Z,7.30
2022-11-27T22:26:13.337Z,11.40
2022-11-27T22:28:40.489Z,9.20
2022-11-27T22:31:16.677Z,8.40
2022-11-27T22:33:44.414Z,13.40
2022-11-27T22:36:22.459Z,8.23
2022-11-27T22:38:52.289Z,9.07
2022-11-27T22:41:20.843Z,9.23
2022-11-27T22:43:48.264Z,7.63
2022-11-27T22:46:19.181Z,10.00
2022-11-27T22:48:46.901Z,10.70
2022-11-27T22:51:14.280Z,12.63
2022-11-27T22:53:41.938Z,15.48
2022-11-27T22:56:13.321Z,11.93
2022-11-27T22:58:41.838Z,11.85
2022-11-27T23:01:23.641Z,12.30
2022-11-27T23:03:51.448Z,11.70
2022-11-27T23:06:20.041Z,14.57
2022-11-27T23:08:47.751Z,14.40
2022-11-27T23:11:17.123Z,15.70
2022-11-27T23:13:49.440Z,17.92
2022-11-27T23:16:17.652Z,17.42
2022-11-27T23:18:47.322Z,15.00
2022-11-27T23:21:19.596Z,12.73
2022-11-27T23:23:47.007Z,12.63
2022-11-27T23:26:18.100Z,13.02
2022-11-27T23:28:48.984Z,16.10
2022-11-27T23:31:30.815Z,15.35
2022-11-27T23:33:59.289Z,18.35
2022-11-27T23:36:26.373Z,14.63
2022-11-27T23:38:53.403Z,22.88
2022-11-27T23:41:22.236Z,11.40
2022-11-27T23:43:49.563Z,12.05
2022-11-27T23:46:17.847Z,14.77
2022-11-27T23:48:45.226Z,12.15
2022-11-27T23:51:20.768Z,20.17
2022-11-27T23:53:48.350Z,20.63
2022-11-27T23:56:17.529Z,13.20
2022-11-27T23:58:47.233Z,16.02
